Airport View

Enter AWOS ICAO identifier for current METAR.

ex. KFNL

KMNH 220054Z AUTO 20004KT 10SM CLR M08/M13 A3005 RMK AO2

22 Feb 2018 01:12

Frequency: 134.375

Phone: 303-648-3479

Other Area AWOS: KFLY - KAFF - KAPA - KCOS

TAF AMD KAPA 212309Z 2123/2218 36010KT P6SM FEW090 FM220100 VRB05KT P6SM FEW040 SCT080 FM220600 21006KT P6SM SCT030 BKN050 FM221100 34006KT P6SM VCFG BKN010 OVC030 FM221600 VRB05KT P6SM VCSH OVC015